sensor_id;sensor_type;location;lat;lon;timestamp;pressure;altitude;pressure_sealevel;temperature;humidity
62833;BME280;48891;49.220;6.920;2023-10-31T00:00:05;97523.75;;;14.31;63.72
62833;BME280;48891;49.220;6.920;2023-10-31T00:02:30;97517.44;;;14.32;63.48
62833;BME280;48891;49.220;6.920;2023-10-31T00:04:56;97511.31;;;14.31;63.58
62833;BME280;48891;49.220;6.920;2023-10-31T00:07:21;97511.31;;;14.31;63.66
62833;BME280;48891;49.220;6.920;2023-10-31T00:09:46;97516.63;;;14.31;63.57
62833;BME280;48891;49.220;6.920;2023-10-31T00:12:11;97514.94;;;14.30;63.70
62833;BME280;48891;49.220;6.920;2023-10-31T00:14:36;97509.50;;;14.32;63.48
62833;BME280;48891;49.220;6.920;2023-10-31T00:17:01;97507.84;;;14.31;63.43
62833;BME280;48891;49.220;6.920;2023-10-31T00:19:26;97509.63;;;14.30;63.58
62833;BME280;48891;49.220;6.920;2023-10-31T00:21:52;97514.78;;;14.32;63.48
62833;BME280;48891;49.220;6.920;2023-10-31T00:24:17;97506.00;;;14.31;63.64
62833;BME280;48891;49.220;6.920;2023-10-31T00:26:42;97514.78;;;14.32;63.54
62833;BME280;48891;49.220;6.920;2023-10-31T00:29:07;97515.78;;;14.31;63.40
62833;BME280;48891;49.220;6.920;2023-10-31T00:31:32;97513.13;;;14.31;63.45
62833;BME280;48891;49.220;6.920;2023-10-31T00:33:57;97512.16;;;14.32;63.60
62833;BME280;48891;49.220;6.920;2023-10-31T00:36:23;97509.50;;;14.32;63.64
62833;BME280;48891;49.220;6.920;2023-10-31T00:38:48;97507.66;;;14.32;63.86
62833;BME280;48891;49.220;6.920;2023-10-31T00:41:13;97506.84;;;14.32;63.75
62833;BME280;48891;49.220;6.920;2023-10-31T00:43:38;97508.66;;;14.31;63.41
62833;BME280;48891;49.220;6.920;2023-10-31T00:46:03;97508.66;;;14.31;63.64
62833;BME280;48891;49.220;6.920;2023-10-31T00:48:28;97516.47;;;14.33;63.56
62833;BME280;48891;49.220;6.920;2023-10-31T00:50:54;97511.31;;;14.31;63.69
62833;BME280;48891;49.220;6.920;2023-10-31T00:53:19;97517.44;;;14.32;63.72
62833;BME280;48891;49.220;6.920;2023-10-31T00:55:44;97518.28;;;14.32;63.65
62833;BME280;48891;49.220;6.920;2023-10-31T00:58:09;97521.91;;;14.31;63.81
62833;BME280;48891;49.220;6.920;2023-10-31T01:00:34;97518.44;;;14.31;63.66
62833;BME280;48891;49.220;6.920;2023-10-31T01:02:59;97518.28;;;14.32;63.55
62833;BME280;48891;49.220;6.920;2023-10-31T01:05:25;97521.09;;;14.31;63.63
62833;BME280;48891;49.220;6.920;2023-10-31T01:07:50;97517.59;;;14.30;63.78
62833;BME280;48891;49.220;6.920;2023-10-31T01:10:15;97521.09;;;14.31;63.66
62833;BME280;48891;49.220;6.920;2023-10-31T01:12:40;97531.53;;;14.32;63.54
62833;BME280;48891;49.220;6.920;2023-10-31T01:15:05;97520.09;;;14.32;63.64
62833;BME280;48891;49.220;6.920;2023-10-31T01:17:31;97519.13;;;14.33;63.70
62833;BME280;48891;49.220;6.920;2023-10-31T01:19:56;97518.28;;;14.32;63.55
62833;BME280;48891;49.220;6.920;2023-10-31T01:22:21;97524.56;;;14.31;63.61
62833;BME280;48891;49.220;6.920;2023-10-31T01:24:46;97529.88;;;14.31;63.42
62833;BME280;48891;49.220;6.920;2023-10-31T01:27:11;97529.88;;;14.31;63.53
62833;BME280;48891;49.220;6.920;2023-10-31T01:29:36;97516.63;;;14.31;63.67
62833;BME280;48891;49.220;6.920;2023-10-31T01:32:01;97521.09;;;14.31;63.65
62833;BME280;48891;49.220;6.920;2023-10-31T01:34:27;97504.34;;;14.30;63.74
62833;BME280;48891;49.220;6.920;2023-10-31T01:36:52;97506.72;;;14.33;63.37
62833;BME280;48891;49.220;6.920;2023-10-31T01:39:17;97506.00;;;14.31;63.34
62833;BME280;48891;49.220;6.920;2023-10-31T01:41:42;97510.31;;;14.32;63.29
62833;BME280;48891;49.220;6.920;2023-10-31T01:44:07;97502.38;;;14.32;63.43
62833;BME280;48891;49.220;6.920;2023-10-31T01:46:33;97503.38;;;14.31;63.56
62833;BME280;48891;49.220;6.920;2023-10-31T01:48:58;97513.81;;;14.33;63.37
62833;BME280;48891;49.220;6.920;2023-10-31T01:51:23;97511.19;;;14.33;63.38
62833;BME280;48891;49.220;6.920;2023-10-31T01:53:48;97512.16;;;14.32;63.42
62833;BME280;48891;49.220;6.920;2023-10-31T01:56:13;97518.28;;;14.32;63.43
62833;BME280;48891;49.220;6.920;2023-10-31T01:58:39;97513.81;;;14.33;63.46
62833;BME280;48891;49.220;6.920;2023-10-31T02:01:04;97507.66;;;14.32;63.39
62833;BME280;48891;49.220;6.920;2023-10-31T02:03:29;97522.75;;;14.32;63.49
62833;BME280;48891;49.220;6.920;2023-10-31T02:05:54;97515.63;;;14.32;63.47
62833;BME280;48891;49.220;6.920;2023-10-31T02:08:20;97514.94;;;14.30;63.50
62833;BME280;48891;49.220;6.920;2023-10-31T02:10:45;97533.34;;;14.32;63.45
62833;BME280;48891;49.220;6.920;2023-10-31T02:13:17;97542.31;;;14.31;63.55
62833;BME280;48891;49.220;6.920;2023-10-31T02:15:43;97553.88;;;14.30;63.47
62833;BME280;48891;49.220;6.920;2023-10-31T02:18:08;97551.22;;;14.30;63.32
62833;BME280;48891;49.220;6.920;2023-10-31T02:20:33;97546.88;;;14.29;63.58
62833;BME280;48891;49.220;6.920;2023-10-31T02:22:59;97551.22;;;14.30;63.56
62833;BME280;48891;49.220;6.920;2023-10-31T02:25:24;97551.22;;;14.30;63.50
62833;BME280;48891;49.220;6.920;2023-10-31T02:27:49;97547.75;;;14.29;63.47
62833;BME280;48891;49.220;6.920;2023-10-31T02:30:14;97545.91;;;14.30;63.49
62833;BME280;48891;49.220;6.920;2023-10-31T02:32:39;97550.38;;;14.29;63.52
62833;BME280;48891;49.220;6.920;2023-10-31T02:35:05;97557.34;;;14.30;63.23
62833;BME280;48891;49.220;6.920;2023-10-31T02:37:30;97557.34;;;14.30;63.09
62833;BME280;48891;49.220;6.920;2023-10-31T02:39:55;97551.22;;;14.30;63.49
62833;BME280;48891;49.220;6.920;2023-10-31T02:42:20;97546.75;;;14.30;63.39
62833;BME280;48891;49.220;6.920;2023-10-31T02:44:45;97554.69;;;14.30;63.17
62833;BME280;48891;49.220;6.920;2023-10-31T02:47:10;97554.84;;;14.29;63.49
62833;BME280;48891;49.220;6.920;2023-10-31T02:49:36;97558.34;;;14.29;63.35
62833;BME280;48891;49.220;6.920;2023-10-31T02:52:01;97559.16;;;14.30;63.43
62833;BME280;48891;49.220;6.920;2023-10-31T02:54:26;97562.66;;;14.30;63.13
62833;BME280;48891;49.220;6.920;2023-10-31T02:56:51;97569.78;;;14.30;63.25
62833;BME280;48891;49.220;6.920;2023-10-31T02:59:16;97569.78;;;14.30;63.41
62833;BME280;48891;49.220;6.920;2023-10-31T03:01:41;97573.25;;;14.30;63.10
62833;BME280;48891;49.220;6.920;2023-10-31T03:04:07;97566.28;;;14.29;63.32
62833;BME280;48891;49.220;6.920;2023-10-31T03:06:32;97570.59;;;14.30;63.41
62833;BME280;48891;49.220;6.920;2023-10-31T03:08:57;97567.13;;;14.30;63.35
62833;BME280;48891;49.220;6.920;2023-10-31T03:11:26;97565.44;;;14.29;63.26
62833;BME280;48891;49.220;6.920;2023-10-31T03:13:51;97574.25;;;14.29;62.99
62833;BME280;48891;49.220;6.920;2023-10-31T03:16:16;97572.56;;;14.28;63.11
62833;BME280;48891;49.220;6.920;2023-10-31T03:18:41;97573.38;;;14.29;63.20
62833;BME280;48891;49.220;6.920;2023-10-31T03:21:06;97573.38;;;14.29;63.24
62833;BME280;48891;49.220;6.920;2023-10-31T03:23:31;97579.53;;;14.29;63.07
62833;BME280;48891;49.220;6.920;2023-10-31T03:25:57;97576.03;;;14.29;63.10
62833;BME280;48891;49.220;6.920;2023-10-31T03:28:22;97568.94;;;14.29;62.95
62833;BME280;48891;49.220;6.920;2023-10-31T03:30:47;97580.38;;;14.30;63.16
62833;BME280;48891;49.220;6.920;2023-10-31T03:33:12;97579.53;;;14.29;63.48
62833;BME280;48891;49.220;6.920;2023-10-31T03:35:38;97578.69;;;14.29;63.03
62833;BME280;48891;49.220;6.920;2023-10-31T03:38:03;97576.91;;;14.29;63.14
62833;BME280;48891;49.220;6.920;2023-10-31T03:40:28;97577.84;;;14.28;63.23
62833;BME280;48891;49.220;6.920;2023-10-31T03:42:53;97585.69;;;14.30;63.17
62833;BME280;48891;49.220;6.920;2023-10-31T03:45:18;97584.00;;;14.29;62.94
62833;BME280;48891;49.220;6.920;2023-10-31T03:47:43;97580.50;;;14.28;63.08
62833;BME280;48891;49.220;6.920;2023-10-31T03:50:08;97590.16;;;14.29;63.22
62833;BME280;48891;49.220;6.920;2023-10-31T03:52:34;97591.13;;;14.28;63.08
62833;BME280;48891;49.220;6.920;2023-10-31T03:54:59;97595.59;;;14.28;63.10
62833;BME280;48891;49.220;6.920;2023-10-31T03:57:24;97598.94;;;14.30;62.90
62833;BME280;48891;49.220;6.920;2023-10-31T03:59:49;97599.06;;;14.28;63.17
62833;BME280;48891;49.220;6.920;2023-10-31T04:02:14;97599.06;;;14.28;63.15
62833;BME280;48891;49.220;6.920;2023-10-31T04:04:39;97610.38;;;14.30;63.07
62833;BME280;48891;49.220;6.920;2023-10-31T04:07:04;97614.97;;;14.28;63.09
62833;BME280;48891;49.220;6.920;2023-10-31T04:09:29;97619.44;;;14.28;63.07
62833;BME280;48891;49.220;6.920;2023-10-31T04:11:55;97617.63;;;14.28;63.00
62833;BME280;48891;49.220;6.920;2023-10-31T04:14:20;97622.09;;;14.28;63.05
62833;BME280;48891;49.220;6.920;2023-10-31T04:16:45;97624.75;;;14.28;63.10
62833;BME280;48891;49.220;6.920;2023-10-31T04:19:10;97631.88;;;14.27;63.01
62833;BME280;48891;49.220;6.920;2023-10-31T04:21:35;97630.06;;;14.28;63.05
62833;BME280;48891;49.220;6.920;2023-10-31T04:24:01;97632.69;;;14.28;62.96
62833;BME280;48891;49.220;6.920;2023-10-31T04:26:26;97628.22;;;14.28;63.06
62833;BME280;48891;49.220;6.920;2023-10-31T04:28:51;97623.91;;;14.27;62.76
62833;BME280;48891;49.220;6.920;2023-10-31T04:31:16;97630.06;;;14.28;62.90
62833;BME280;48891;49.220;6.920;2023-10-31T04:33:41;97643.31;;;14.28;63.10
62833;BME280;48891;49.220;6.920;2023-10-31T04:36:06;97643.31;;;14.28;62.88
62833;BME280;48891;49.220;6.920;2023-10-31T04:38:31;97647.78;;;14.27;62.92
62833;BME280;48891;49.220;6.920;2023-10-31T04:40:57;97650.44;;;14.27;62.85
62833;BME280;48891;49.220;6.920;2023-10-31T04:43:22;97659.22;;;14.28;63.01
62833;BME280;48891;49.220;6.920;2023-10-31T04:45:47;97654.88;;;14.27;62.94
62833;BME280;48891;49.220;6.920;2023-10-31T04:48:13;97655.72;;;14.27;62.96
62833;BME280;48891;49.220;6.920;2023-10-31T04:50:38;97656.69;;;14.26;63.23
62833;BME280;48891;49.220;6.920;2023-10-31T04:53:03;97656.69;;;14.26;63.02
62833;BME280;48891;49.220;6.920;2023-10-31T04:55:28;97658.38;;;14.27;63.19
62833;BME280;48891;49.220;6.920;2023-10-31T04:57:53;97650.44;;;14.27;62.80
62833;BME280;48891;49.220;6.920;2023-10-31T05:00:18;97658.38;;;14.27;63.13
62833;BME280;48891;49.220;6.920;2023-10-31T05:02:44;97657.50;;;14.27;63.04
62833;BME280;48891;49.220;6.920;2023-10-31T05:05:09;97658.38;;;14.27;63.14
62833;BME280;48891;49.220;6.920;2023-10-31T05:07:34;97661.03;;;14.27;62.86
62833;BME280;48891;49.220;6.920;2023-10-31T05:09:59;97661.84;;;14.28;62.83
62833;BME280;48891;49.220;6.920;2023-10-31T05:12:24;97664.50;;;14.28;62.92
62833;BME280;48891;49.220;6.920;2023-10-31T05:14:49;97662.00;;;14.26;62.88
62833;BME280;48891;49.220;6.920;2023-10-31T05:17:14;97665.34;;;14.28;63.04
62833;BME280;48891;49.220;6.920;2023-10-31T05:19:39;97666.31;;;14.27;62.92
62833;BME280;48891;49.220;6.920;2023-10-31T05:22:05;97659.34;;;14.26;62.73
62833;BME280;48891;49.220;6.920;2023-10-31T05:24:30;97666.31;;;14.27;62.58
62833;BME280;48891;49.220;6.920;2023-10-31T05:26:55;97662.69;;;14.28;62.83
62833;BME280;48891;49.220;6.920;2023-10-31T05:29:20;97667.28;;;14.26;62.63
62833;BME280;48891;49.220;6.920;2023-10-31T05:31:45;97665.47;;;14.27;62.77
62833;BME280;48891;49.220;6.920;2023-10-31T05:34:10;97670.78;;;14.27;62.69
62833;BME280;48891;49.220;6.920;2023-10-31T05:36:35;97673.41;;;14.27;62.78
62833;BME280;48891;49.220;6.920;2023-10-31T05:39:00;97674.28;;;14.27;62.69
62833;BME280;48891;49.220;6.920;2023-10-31T05:41:26;97677.91;;;14.26;62.82
62833;BME280;48891;49.220;6.920;2023-10-31T05:43:51;97678.72;;;14.27;62.56
62833;BME280;48891;49.220;6.920;2023-10-31T05:46:16;97684.88;;;14.27;62.81
62833;BME280;48891;49.220;6.920;2023-10-31T05:48:41;97695.63;;;14.26;62.65
62833;BME280;48891;49.220;6.920;2023-10-31T05:51:13;97690.31;;;14.26;62.79
62833;BME280;48891;49.220;6.920;2023-10-31T05:53:39;97696.44;;;14.26;62.85
62833;BME280;48891;49.220;6.920;2023-10-31T05:56:04;97690.31;;;14.26;62.94
62833;BME280;48891;49.220;6.920;2023-10-31T05:58:30;97695.63;;;14.26;62.72
62833;BME280;48891;49.220;6.920;2023-10-31T06:00:55;97697.41;;;14.25;62.85
62833;BME280;48891;49.220;6.920;2023-10-31T06:03:20;97703.56;;;14.26;62.52
62833;BME280;48891;49.220;6.920;2023-10-31T06:05:45;97710.66;;;14.25;62.65
62833;BME280;48891;49.220;6.920;2023-10-31T06:08:10;97717.66;;;14.26;62.85
62833;BME280;48891;49.220;6.920;2023-10-31T06:10:35;97728.38;;;14.24;62.73
62833;BME280;48891;49.220;6.920;2023-10-31T06:13:00;97726.56;;;14.25;62.90
62833;BME280;48891;49.220;6.920;2023-10-31T06:15:25;97729.22;;;14.25;62.95
62833;BME280;48891;49.220;6.920;2023-10-31T06:17:51;97739.00;;;14.24;62.75
62833;BME280;48891;49.220;6.920;2023-10-31T06:20:16;97743.34;;;14.26;62.77
62833;BME280;48891;49.220;6.920;2023-10-31T06:22:41;97752.25;;;14.24;62.75
62833;BME280;48891;49.220;6.920;2023-10-31T06:25:06;97748.78;;;14.24;62.71
62833;BME280;48891;49.220;6.920;2023-10-31T06:27:31;97768.97;;;14.25;62.69
62833;BME280;48891;49.220;6.920;2023-10-31T06:29:56;97773.44;;;14.24;62.70
62833;BME280;48891;49.220;6.920;2023-10-31T06:32:21;97785.00;;;14.23;62.97
62833;BME280;48891;49.220;6.920;2023-10-31T06:34:46;97791.19;;;14.24;62.74
62833;BME280;48891;49.220;6.920;2023-10-31T06:37:12;97803.44;;;14.25;62.74
62833;BME280;48891;49.220;6.920;2023-10-31T06:39:37;97801.78;;;14.24;62.80
62833;BME280;48891;49.220;6.920;2023-10-31T06:42:02;97808.88;;;14.23;62.47
62833;BME280;48891;49.220;6.920;2023-10-31T06:44:27;97804.44;;;14.24;62.75
62833;BME280;48891;49.220;6.920;2023-10-31T06:46:52;97802.59;;;14.24;62.72
62833;BME280;48891;49.220;6.920;2023-10-31T06:49:17;97801.78;;;14.24;62.72
62833;BME280;48891;49.220;6.920;2023-10-31T06:51:42;97803.56;;;14.23;62.51
62833;BME280;48891;49.220;6.920;2023-10-31T06:54:08;97809.72;;;14.24;62.80
62833;BME280;48891;49.220;6.920;2023-10-31T06:56:33;97816.81;;;14.23;62.67
62833;BME280;48891;49.220;6.920;2023-10-31T06:58:58;97811.53;;;14.23;62.48
62833;BME280;48891;49.220;6.920;2023-10-31T07:01:23;97800.06;;;14.13;62.86
62833;BME280;48891;49.220;6.920;2023-10-31T07:03:49;97821.16;;;14.24;62.66
62833;BME280;48891;49.220;6.920;2023-10-31T07:06:14;97830.06;;;14.23;62.90
62833;BME280;48891;49.220;6.920;2023-10-31T07:08:39;97838.88;;;14.24;62.70
62833;BME280;48891;49.220;6.920;2023-10-31T07:11:04;97847.66;;;14.24;62.64
62833;BME280;48891;49.220;6.920;2023-10-31T07:13:30;97843.31;;;14.23;62.64
62833;BME280;48891;49.220;6.920;2023-10-31T07:15:55;97850.31;;;14.24;62.70
62833;BME280;48891;49.220;6.920;2023-10-31T07:18:20;97845.03;;;14.24;62.65
62833;BME280;48891;49.220;6.920;2023-10-31T07:20:45;97843.19;;;14.25;62.64
62833;BME280;48891;49.220;6.920;2023-10-31T07:23:10;97845.97;;;14.23;62.67
62833;BME280;48891;49.220;6.920;2023-10-31T07:25:36;97851.28;;;14.23;62.75
62833;BME280;48891;49.220;6.920;2023-10-31T07:28:01;97849.63;;;14.22;62.73
62833;BME280;48891;49.220;6.920;2023-10-31T07:30:26;97850.44;;;14.23;62.66
62833;BME280;48891;49.220;6.920;2023-10-31T07:32:51;97859.22;;;14.23;62.77
62833;BME280;48891;49.220;6.920;2023-10-31T07:35:16;97860.09;;;14.24;62.71
62833;BME280;48891;49.220;6.920;2023-10-31T07:37:41;97864.53;;;14.23;62.67
62833;BME280;48891;49.220;6.920;2023-10-31T07:40:06;97868.03;;;14.24;62.79
62833;BME280;48891;49.220;6.920;2023-10-31T07:42:32;97870.69;;;14.24;62.46
62833;BME280;48891;49.220;6.920;2023-10-31T07:44:57;97864.53;;;14.23;62.76
62833;BME280;48891;49.220;6.920;2023-10-31T07:47:22;97872.34;;;14.25;62.64
62833;BME280;48891;49.220;6.920;2023-10-31T07:49:47;97868.03;;;14.24;62.63
62833;BME280;48891;49.220;6.920;2023-10-31T07:52:12;97876.00;;;14.24;62.52
62833;BME280;48891;49.220;6.920;2023-10-31T07:54:40;97867.19;;;14.23;62.50
62833;BME280;48891;49.220;6.920;2023-10-31T07:57:05;97872.50;;;14.23;62.60
62833;BME280;48891;49.220;6.920;2023-10-31T07:59:33;97870.69;;;14.24;62.60
62833;BME280;48891;49.220;6.920;2023-10-31T08:01:58;97879.34;;;14.26;62.49
62833;BME280;48891;49.220;6.920;2023-10-31T08:04:23;97877.66;;;14.25;62.66
62833;BME280;48891;49.220;6.920;2023-10-31T08:06:48;97885.63;;;14.25;62.63
62833;BME280;48891;49.220;6.920;2023-10-31T08:09:13;97887.44;;;14.24;62.53
62833;BME280;48891;49.220;6.920;2023-10-31T08:11:38;97881.31;;;14.24;62.66
62833;BME280;48891;49.220;6.920;2023-10-31T08:14:04;97891.78;;;14.26;62.40
62833;BME280;48891;49.220;6.920;2023-10-31T08:16:29;97893.44;;;14.27;62.63
62833;BME280;48891;49.220;6.920;2023-10-31T08:18:54;97890.91;;;14.25;62.58
62833;BME280;48891;49.220;6.920;2023-10-31T08:21:19;97886.47;;;14.26;62.61
62833;BME280;48891;49.220;6.920;2023-10-31T08:23:44;97894.44;;;14.26;62.57
62833;BME280;48891;49.220;6.920;2023-10-31T08:26:09;97890.09;;;14.24;62.56
62833;BME280;48891;49.220;6.920;2023-10-31T08:28:34;97892.75;;;14.24;62.65
62833;BME280;48891;49.220;6.920;2023-10-31T08:30:59;97904.16;;;14.25;62.63
62833;BME280;48891;49.220;6.920;2023-10-31T08:33:25;97908.63;;;14.24;62.39
62833;BME280;48891;49.220;6.920;2023-10-31T08:35:50;97906.81;;;14.25;62.46
62833;BME280;48891;49.220;6.920;2023-10-31T08:38:15;97905.84;;;14.26;62.62
62833;BME280;48891;49.220;6.920;2023-10-31T08:40:41;97921.75;;;14.26;62.80
62833;BME280;48891;49.220;6.920;2023-10-31T08:43:06;97921.06;;;14.24;62.72
62833;BME280;48891;49.220;6.920;2023-10-31T08:45:31;97928.03;;;14.25;62.59
62833;BME280;48891;49.220;6.920;2023-10-31T08:47:56;97931.53;;;14.26;62.58
62833;BME280;48891;49.220;6.920;2023-10-31T08:50:21;97933.19;;;14.27;62.63
62833;BME280;48891;49.220;6.920;2023-10-31T08:52:46;97934.91;;;14.28;62.46
62833;BME280;48891;49.220;6.920;2023-10-31T08:55:11;97935.84;;;14.27;62.63
62833;BME280;48891;49.220;6.920;2023-10-31T08:57:36;97938.38;;;14.28;62.49
62833;BME280;48891;49.220;6.920;2023-10-31T09:00:02;97934.91;;;14.28;62.45
62833;BME280;48891;49.220;6.920;2023-10-31T09:02:27;97938.25;;;14.30;62.58
62833;BME280;48891;49.220;6.920;2023-10-31T09:04:52;97921.22;;;14.32;62.55
62833;BME280;48891;49.220;6.920;2023-10-31T09:07:17;97928.34;;;14.32;62.46
62833;BME280;48891;49.220;6.920;2023-10-31T09:09:42;97930.16;;;14.31;62.32
62833;BME280;48891;49.220;6.920;2023-10-31T09:12:07;97926.53;;;14.32;62.31
62833;BME280;48891;49.220;6.920;2023-10-31T09:14:33;97935.34;;;14.33;62.48
62833;BME280;48891;49.220;6.920;2023-10-31T09:16:58;97939.66;;;14.34;62.50
62833;BME280;48891;49.220;6.920;2023-10-31T09:19:23;97938.00;;;14.33;62.55
62833;BME280;48891;49.220;6.920;2023-10-31T09:21:48;97944.25;;;14.32;62.56
62833;BME280;48891;49.220;6.920;2023-10-31T09:24:13;97938.00;;;14.33;62.66
62833;BME280;48891;49.220;6.920;2023-10-31T09:26:41;97943.41;;;14.31;62.48
62833;BME280;48891;49.220;6.920;2023-10-31T09:29:06;97946.06;;;14.31;62.48
62833;BME280;48891;49.220;6.920;2023-10-31T09:31:31;97945.25;;;14.31;62.74
62833;BME280;48891;49.220;6.920;2023-10-31T09:33:57;97942.59;;;14.31;62.52
62833;BME280;48891;49.220;6.920;2023-10-31T09:36:22;97941.84;;;14.29;62.83
62833;BME280;48891;49.220;6.920;2023-10-31T09:38:47;97940.06;;;14.29;62.70
62833;BME280;48891;49.220;6.920;2023-10-31T09:41:12;97950.66;;;14.29;62.81
62833;BME280;48891;49.220;6.920;2023-10-31T09:43:37;97946.19;;;14.30;62.79
62833;BME280;48891;49.220;6.920;2023-10-31T09:46:02;97949.69;;;14.30;62.90
62833;BME280;48891;49.220;6.920;2023-10-31T09:48:28;97948.03;;;14.29;62.91
62833;BME280;48891;49.220;6.920;2023-10-31T09:50:53;97946.19;;;14.30;62.67
62833;BME280;48891;49.220;6.920;2023-10-31T09:53:18;97954.16;;;14.30;62.66
62833;BME280;48891;49.220;6.920;2023-10-31T09:55:44;97943.56;;;14.30;62.65
62833;BME280;48891;49.220;6.920;2023-10-31T09:58:10;97949.69;;;14.30;62.76
62833;BME280;48891;49.220;6.920;2023-10-31T10:00:35;97955.84;;;14.31;62.69
62833;BME280;48891;49.220;6.920;2023-10-31T10:03:00;97950.66;;;14.29;62.88
62833;BME280;48891;49.220;6.920;2023-10-31T10:05:25;97945.38;;;14.29;62.81
62833;BME280;48891;49.220;6.920;2023-10-31T10:07:53;97954.16;;;14.30;62.69
62833;BME280;48891;49.220;6.920;2023-10-31T10:10:20;97956.69;;;14.31;62.62
62833;BME280;48891;49.220;6.920;2023-10-31T10:12:45;97954.97;;;14.30;62.57
62833;BME280;48891;49.220;6.920;2023-10-31T10:15:10;97963.81;;;14.31;62.90
62833;BME280;48891;49.220;6.920;2023-10-31T10:17:35;97954.16;;;14.30;62.79
62833;BME280;48891;49.220;6.920;2023-10-31T10:20:07;97961.97;;;14.31;63.00
62833;BME280;48891;49.220;6.920;2023-10-31T10:22:36;97962.94;;;14.30;62.56
62833;BME280;48891;49.220;6.920;2023-10-31T10:25:01;97954.16;;;14.30;62.92
62833;BME280;48891;49.220;6.920;2023-10-31T10:27:26;97961.28;;;14.29;62.98
62833;BME280;48891;49.220;6.920;2023-10-31T10:29:52;97963.94;;;14.29;62.49
62833;BME280;48891;49.220;6.920;2023-10-31T10:32:18;97961.16;;;14.31;62.52
62833;BME280;48891;49.220;6.920;2023-10-31T10:34:43;97958.63;;;14.29;62.71
62833;BME280;48891;49.220;6.920;2023-10-31T10:37:08;97954.97;;;14.30;62.53
62833;BME280;48891;49.220;6.920;2023-10-31T10:39:33;97969.09;;;14.31;62.64
62833;BME280;48891;49.220;6.920;2023-10-31T10:41:59;97964.63;;;14.31;62.65
62833;BME280;48891;49.220;6.920;2023-10-31T10:44:32;97958.34;;;14.32;62.74
62833;BME280;48891;49.220;6.920;2023-10-31T10:46:57;97963.50;;;14.34;62.76
62833;BME280;48891;49.220;6.920;2023-10-31T10:49:24;97958.09;;;14.35;62.46
62833;BME280;48891;49.220;6.920;2023-10-31T10:51:52;97956.25;;;14.36;62.56
62833;BME280;48891;49.220;6.920;2023-10-31T10:54:25;97956.25;;;14.36;62.54
62833;BME280;48891;49.220;6.920;2023-10-31T10:56:54;97955.44;;;14.35;62.38
62833;BME280;48891;49.220;6.920;2023-10-31T10:59:32;97951.94;;;14.35;62.43
62833;BME280;48891;49.220;6.920;2023-10-31T11:02:01;97951.94;;;14.35;62.05
62833;BME280;48891;49.220;6.920;2023-10-31T11:04:26;97958.91;;;14.36;62.37
62833;BME280;48891;49.220;6.920;2023-10-31T11:06:52;97967.72;;;14.36;62.18
62833;BME280;48891;49.220;6.920;2023-10-31T11:09:17;97959.78;;;14.36;62.35
62833;BME280;48891;49.220;6.920;2023-10-31T11:11:43;97961.44;;;14.37;62.38
62833;BME280;48891;49.220;6.920;2023-10-31T11:14:08;97954.47;;;14.36;62.21
62833;BME280;48891;49.220;6.920;2023-10-31T11:16:35;97959.50;;;14.39;62.30
62833;BME280;48891;49.220;6.920;2023-10-31T11:19:02;97961.06;;;14.42;62.29
62833;BME280;48891;49.220;6.920;2023-10-31T11:21:28;97958.53;;;14.40;62.54
62833;BME280;48891;49.220;6.920;2023-10-31T11:23:57;97956.59;;;14.42;62.48
62833;BME280;48891;49.220;6.920;2023-10-31T11:26:25;97960.09;;;14.43;62.55
62833;BME280;48891;49.220;6.920;2023-10-31T11:28:50;97958.84;;;14.47;62.43
62833;BME280;48891;49.220;6.920;2023-10-31T11:31:16;97957.88;;;14.48;62.12
62833;BME280;48891;49.220;6.920;2023-10-31T11:33:41;97953.41;;;14.49;62.32
62833;BME280;48891;49.220;6.920;2023-10-31T11:36:06;97958.59;;;14.50;62.23
62833;BME280;48891;49.220;6.920;2023-10-31T11:38:32;97954.97;;;14.51;62.10
62833;BME280;48891;49.220;6.920;2023-10-31T11:40:58;97947.81;;;14.52;61.86
62833;BME280;48891;49.220;6.920;2023-10-31T11:43:24;97958.44;;;14.52;61.82
62833;BME280;48891;49.220;6.920;2023-10-31T11:45:49;97959.44;;;14.51;62.12
62833;BME280;48891;49.220;6.920;2023-10-31T11:48:15;97959.44;;;14.51;62.17
62833;BME280;48891;49.220;6.920;2023-10-31T11:50:40;97963.91;;;14.50;62.12
62833;BME280;48891;49.220;6.920;2023-10-31T11:53:06;97955.09;;;14.50;62.08
62833;BME280;48891;49.220;6.920;2023-10-31T11:55:49;97957.72;;;14.50;62.00
62833;BME280;48891;49.220;6.920;2023-10-31T11:58:24;97963.16;;;14.48;62.18
62833;BME280;48891;49.220;6.920;2023-10-31T12:00:50;97967.50;;;14.49;61.81
62833;BME280;48891;49.220;6.920;2023-10-31T12:03:19;97971.00;;;14.50;61.89
62833;BME280;48891;49.220;6.920;2023-10-31T12:05:54;97970.88;;;14.51;62.04
62833;BME280;48891;49.220;6.920;2023-10-31T12:10:51;97978.81;;;14.51;62.04
62833;BME280;48891;49.220;6.920;2023-10-31T12:13:16;97974.34;;;14.52;61.82
62833;BME280;48891;49.220;6.920;2023-10-31T12:15:51;97970.03;;;14.51;62.01
62833;BME280;48891;49.220;6.920;2023-10-31T12:18:17;97973.66;;;14.50;61.97
62833;BME280;48891;49.220;6.920;2023-10-31T12:20:49;97971.69;;;14.52;62.05
62833;BME280;48891;49.220;6.920;2023-10-31T12:23:14;97972.56;;;14.52;62.05
62833;BME280;48891;49.220;6.920;2023-10-31T12:25:45;97972.69;;;14.51;61.91
62833;BME280;48891;49.220;6.920;2023-10-31T12:28:15;97972.81;;;14.49;62.04
62833;BME280;48891;49.220;6.920;2023-10-31T12:30:44;97973.66;;;14.50;62.09
62833;BME280;48891;49.220;6.920;2023-10-31T12:33:09;97978.00;;;14.51;61.82
62833;BME280;48891;49.220;6.920;2023-10-31T12:35:34;97970.03;;;14.51;61.90
62833;BME280;48891;49.220;6.920;2023-10-31T12:38:00;97976.31;;;14.50;62.00
62833;BME280;48891;49.220;6.920;2023-10-31T12:40:25;97978.00;;;14.51;61.97
62833;BME280;48891;49.220;6.920;2023-10-31T12:42:51;97984.97;;;14.52;61.81
62833;BME280;48891;49.220;6.920;2023-10-31T12:45:17;97973.53;;;14.51;61.82
62833;BME280;48891;49.220;6.920;2023-10-31T12:47:43;97971.00;;;14.50;61.96
62833;BME280;48891;49.220;6.920;2023-10-31T12:50:08;97974.63;;;14.49;61.94
62833;BME280;48891;49.220;6.920;2023-10-31T12:55:15;97974.63;;;14.49;61.92